createdAt,value
2016-10-07T14:26:48.941Z,55.81
2016-10-07T14:27:49.622Z,55.33
2016-10-07T14:28:49.553Z,55.81
2016-10-07T14:29:49.087Z,54.94
2016-10-07T14:30:50.008Z,55.04
2016-10-07T14:31:49.755Z,55.43
2016-10-07T14:32:49.276Z,55.71
2016-10-07T14:33:49.861Z,54.94
2016-10-07T14:34:49.950Z,55.33
2016-10-07T14:35:50.050Z,55.43
2016-10-07T14:36:49.992Z,55.13
2016-10-07T14:37:49.525Z,53.98
2016-10-07T14:38:50.113Z,53.88
2016-10-07T14:39:49.640Z,53.78
2016-10-07T14:40:49.684Z,54.75
2016-10-07T14:41:50.273Z,54.46
2016-10-07T14:42:50.358Z,54.75
2016-10-07T14:43:50.354Z,55.04
2016-10-07T14:44:49.894Z,55.81
2016-10-07T14:45:50.003Z,55.33
2016-10-07T14:46:50.573Z,55.13
2016-10-07T14:47:50.072Z,56.2
2016-10-07T14:48:50.155Z,56.48
2016-10-07T14:49:50.726Z,56.38
2016-10-07T14:50:50.405Z,56.29
2016-10-07T14:51:50.297Z,56.1
2016-10-07T14:52:50.360Z,56.58
2016-10-07T14:53:50.925Z,56.96
2016-10-07T14:54:50.988Z,56.96
2016-10-07T14:55:50.497Z,56.38
2016-10-07T14:56:50.563Z,55.81
2016-10-07T14:57:51.117Z,54.75
2016-10-07T14:58:51.205Z,55.43
2016-10-07T14:59:51.234Z,55.33
2016-10-07T15:00:51.488Z,55.62
2016-10-07T15:01:51.459Z,56.12
2016-10-07T15:02:50.898Z,55.74
2016-10-07T15:03:51.647Z,55.16
2016-10-07T15:04:50.964Z,55.07
2016-10-07T15:05:51.561Z,55.07
2016-10-07T15:06:51.198Z,54.78
2016-10-07T15:07:51.150Z,54.2
2016-10-07T15:08:51.224Z,53.53
2016-10-07T15:09:51.250Z,54.2
2016-10-07T15:10:51.291Z,54.3
2016-10-07T15:11:51.393Z,54
2016-10-07T15:12:51.408Z,54.1
2016-10-07T15:13:52.001Z,54.2
2016-10-07T15:14:52.045Z,54
2016-10-07T15:15:51.608Z,53.72
2016-10-07T15:16:52.169Z,54.2
2016-10-07T15:17:51.697Z,54.39
2016-10-07T15:18:52.153Z,54.49
2016-10-07T15:19:51.790Z,54.39
2016-10-07T15:20:52.396Z,54.78
2016-10-07T15:21:52.451Z,54.58
2016-10-07T15:22:52.512Z,55.07
2016-10-07T15:23:52.559Z,54.78
2016-10-07T15:24:52.808Z,55.26
2016-10-07T15:25:52.720Z,54.97
2016-10-07T15:26:52.206Z,54.68
2016-10-07T15:27:52.744Z,55.35
2016-10-07T15:28:52.283Z,55.65
2016-10-07T15:29:52.347Z,54.1
2016-10-07T15:30:52.371Z,53.62
2016-10-07T15:31:52.962Z,53.53
2016-10-07T15:32:53.035Z,53.81
2016-10-07T15:33:52.555Z,52.75
2016-10-07T15:34:52.597Z,53.33
2016-10-07T15:35:52.645Z,53.05
2016-10-07T15:36:52.732Z,53.14
2016-10-07T15:37:52.891Z,53.62
2016-10-07T15:38:52.831Z,53.27
2016-10-07T15:39:53.604Z,52.87
2016-10-07T15:40:52.923Z,52.78
2016-10-07T15:41:53.485Z,52.87
2016-10-07T15:42:53.655Z,52.87
2016-10-07T15:43:53.588Z,53.94
2016-10-07T15:44:53.124Z,54.22
2016-10-07T15:45:53.188Z,54.9
2016-10-07T15:46:53.255Z,54.8
2016-10-07T15:47:53.332Z,55.35
2016-10-07T15:48:53.397Z,55.35
2016-10-07T15:49:53.396Z,54.68
2016-10-07T15:50:54.006Z,54.61
2016-10-07T15:51:54.041Z,54.9
2016-10-07T15:52:53.565Z,55.67
2016-10-07T15:53:53.624Z,54.87
2016-10-07T15:54:53.713Z,55.09
2016-10-07T15:55:53.773Z,54.78
2016-10-07T15:56:53.840Z,55.67
2016-10-07T15:57:54.433Z,54.61
2016-10-07T15:58:53.918Z,54.87
2016-10-07T15:59:54.534Z,55.35
2016-10-07T16:00:54.539Z,55.35
2016-10-07T16:01:54.095Z,54.97
2016-10-07T16:02:54.156Z,55.74
2016-10-07T16:03:54.188Z,55.16
2016-10-07T16:04:54.945Z,55.35
2016-10-07T16:05:54.296Z,55.35
2016-10-07T16:06:54.901Z,55.35
2016-10-07T16:07:54.378Z,55.29
2016-10-07T16:08:54.554Z,54.49
2016-10-07T16:09:54.483Z,54.49
2016-10-07T16:10:54.534Z,54.8
2016-10-07T16:11:54.593Z,54.52
2016-10-07T16:12:54.658Z,54.13
2016-10-07T16:13:54.790Z,54.22
2016-10-07T16:14:54.776Z,53.55
2016-10-07T16:15:54.810Z,54.42
2016-10-07T16:16:54.881Z,53.45
2016-10-07T16:17:54.949Z,54.1
2016-10-07T16:18:55.621Z,53.91
2016-10-07T16:19:55.565Z,53.55
2016-10-07T16:20:55.094Z,53.84
2016-10-07T16:21:55.152Z,53.43
2016-10-07T16:22:55.195Z,53.91
2016-10-07T16:23:55.778Z,53.45
2016-10-07T16:24:55.320Z,53.36
2016-10-07T16:25:55.359Z,53.65
2016-10-07T16:26:55.438Z,52.59
2016-10-07T16:27:55.477Z,52.59
2016-10-07T16:28:55.520Z,53.07
2016-10-07T16:29:55.588Z,53.65
2016-10-07T16:30:56.572Z,53.45
2016-10-07T16:31:55.699Z,53.27
2016-10-07T16:32:55.754Z,52.4
2016-10-07T16:33:55.799Z,51.46
2016-10-07T16:34:55.846Z,51.94
2016-10-07T16:35:56.465Z,52.61
2016-10-07T16:36:55.959Z,53.19
2016-10-07T16:37:56.550Z,53.67
2016-10-07T16:38:56.575Z,53.96
2016-10-07T16:39:56.129Z,54.44
2016-10-07T16:40:56.161Z,54.25
2016-10-07T16:41:56.203Z,54.61
2016-10-07T16:42:56.264Z,54.13
2016-10-07T16:43:56.321Z,53.84
2016-10-07T16:45:00.317Z,54.52
2016-10-07T16:45:56.467Z,54.42
2016-10-07T16:46:56.513Z,53.96
2016-10-07T16:47:56.534Z,53.39
2016-10-07T16:48:56.646Z,53.55
2016-10-07T16:49:57.258Z,52.71
2016-10-07T16:50:56.708Z,53
2016-10-07T16:51:56.767Z,53.65
2016-10-07T16:52:57.371Z,53.58
2016-10-07T16:53:56.889Z,52.91
2016-10-07T16:54:56.905Z,52.71
2016-10-07T16:55:56.979Z,53
2016-10-07T16:56:57.063Z,53
2016-10-07T16:57:57.091Z,53.77
2016-10-07T16:58:57.173Z,52.73
2016-10-07T16:59:57.703Z,52.83
2016-10-07T17:00:57.271Z,53.58
2016-10-07T17:01:57.328Z,53.67
2016-10-07T17:02:57.372Z,53.87
2016-10-07T17:03:57.454Z,54.44
2016-10-07T17:04:57.506Z,53.87
2016-10-07T17:05:58.081Z,52.42
2016-10-07T17:06:58.104Z,52.61
2016-10-07T17:07:58.180Z,53.39
2016-10-07T17:08:57.731Z,53.19
2016-10-07T17:09:57.756Z,52.81
2016-10-07T17:10:57.905Z,53.67
2016-10-07T17:11:57.871Z,52.71
2016-10-07T17:12:58.459Z,52.33
2016-10-07T17:13:57.975Z,51.94
2016-10-07T17:14:58.557Z,51.94
2016-10-07T17:15:58.162Z,52.23
2016-10-07T17:16:58.119Z,53.17
2016-10-07T17:17:58.675Z,52.52
2016-10-07T17:18:58.814Z,52.71
2016-10-07T17:19:58.283Z,52.49
2016-10-07T17:20:58.653Z,53.07
2016-10-07T17:21:58.922Z,53.19
2016-10-07T17:22:58.968Z,52.91
2016-10-07T17:23:58.521Z,53.39
2016-10-07T17:24:58.575Z,53.77
2016-10-07T17:25:58.703Z,53.77
2016-10-07T17:26:58.664Z,54.54
2016-10-07T17:27:58.729Z,55.22
2016-10-07T17:28:58.765Z,55.31
2016-10-07T17:29:58.841Z,55.7
2016-10-07T17:30:58.881Z,56.76
2016-10-07T17:31:58.919Z,57.24
2016-10-07T17:32:58.990Z,57.14
2016-10-07T17:33:59.031Z,56.15
2016-10-07T17:34:59.084Z,56.44
2016-10-07T17:35:59.679Z,56.92
2016-10-07T17:36:59.231Z,57.02
2016-10-07T17:37:59.791Z,56.95
2016-10-07T17:38:59.836Z,57.53
2016-10-07T17:39:59.928Z,58.11
2016-10-07T17:40:59.923Z,58.69
2016-10-07T17:41:59.485Z,58.27
2016-10-07T17:43:00.077Z,57.72
2016-10-07T17:43:59.589Z,56.76
2016-10-07T17:44:59.648Z,56.76
2016-10-07T17:45:59.720Z,56.85
2016-10-07T17:46:59.774Z,58.3
2016-10-07T17:48:00.360Z,56.95
2016-10-07T17:48:59.879Z,57.72
2016-10-07T17:50:00.439Z,57.82
2016-10-07T17:50:59.975Z,56.66
2016-10-07T17:52:00.099Z,56.47
2016-10-07T17:53:00.088Z,56.37
2016-10-07T17:54:00.161Z,56.85
2016-10-07T17:55:00.179Z,56.95
2016-10-07T17:56:00.813Z,57.05
2016-10-07T17:57:00.916Z,57.98
2016-10-07T17:58:00.864Z,57.98
2016-10-07T17:59:00.933Z,58.75
2016-10-07T18:00:00.441Z,59.23
2016-10-07T18:01:00.542Z,59.81
2016-10-07T18:02:01.178Z,59.43
2016-10-07T18:03:00.602Z,59.52
2016-10-07T18:04:00.662Z,59.72
2016-10-07T18:05:01.269Z,59.49
2016-10-07T18:06:00.783Z,60.27
2016-10-07T18:07:00.852Z,59.59
2016-10-07T18:08:00.904Z,59.2
2016-10-07T18:09:00.941Z,58.92
2016-10-07T18:10:00.981Z,58.72
2016-10-07T18:11:01.051Z,58.72
2016-10-07T18:12:01.097Z,59.3
2016-10-07T18:13:01.174Z,58.53
2016-10-07T18:14:01.213Z,57.67
2016-10-07T18:15:01.768Z,58.15
2016-10-07T18:16:01.855Z,58.24
2016-10-07T18:17:01.340Z,57.86
2016-10-07T18:18:01.907Z,58.27
2016-10-07T18:19:01.459Z,58.17
2016-10-07T18:20:01.519Z,58.17
2016-10-07T18:21:01.573Z,58.17
2016-10-07T18:22:02.133Z,58.27
2016-10-07T18:23:01.669Z,58.17
2016-10-07T18:24:01.711Z,59.23
2016-10-07T18:25:01.755Z,59.14
2016-10-07T18:26:02.350Z,58.95
2016-10-07T18:27:02.391Z,59.62
2016-10-07T18:28:01.926Z,58.95
2016-10-07T18:29:02.020Z,59.33
2016-10-07T18:30:02.042Z,59.23
2016-10-07T18:31:02.624Z,60
2016-10-07T18:32:02.162Z,59.62
2016-10-07T18:33:02.215Z,59.14
2016-10-07T18:34:02.777Z,58.95
2016-10-07T18:35:02.334Z,58.49
2016-10-07T18:36:02.627Z,59.23
2016-10-07T18:37:02.425Z,59.33
2016-10-07T18:38:02.513Z,59.33
2016-10-07T18:39:02.535Z,59.91
2016-10-07T18:40:02.598Z,60.68
2016-10-07T18:41:02.679Z,60.2
2016-10-07T18:42:03.694Z,60.68
2016-10-07T18:43:03.328Z,60.49
2016-10-07T18:44:03.346Z,60.3
2016-10-07T18:45:03.404Z,60.3
2016-10-07T18:46:02.908Z,60.3
2016-10-07T18:47:02.974Z,60.3
2016-10-07T18:48:03.534Z,60.3
2016-10-07T18:49:03.586Z,60.68
2016-10-07T18:50:03.674Z,59.91
2016-10-07T18:51:03.767Z,58.95
2016-10-07T18:52:03.771Z,59.14
2016-10-07T18:53:03.300Z,59.91
2016-10-07T18:54:03.374Z,60.2
2016-10-07T18:55:03.411Z,60.68
2016-10-07T18:56:03.481Z,60.49
2016-10-07T18:57:03.550Z,60.77
2016-10-07T18:58:03.597Z,61.07
2016-10-07T18:59:03.633Z,60.87
2016-10-07T19:00:03.658Z,61.61
2016-10-07T19:01:04.301Z,61.42
2016-10-07T19:02:03.792Z,60.75
2016-10-07T19:03:03.831Z,61.22
2016-10-07T19:04:04.404Z,61.22
2016-10-07T19:05:03.947Z,61.9
2016-10-07T19:06:04.567Z,62
2016-10-07T19:07:04.078Z,61.52
2016-10-07T19:08:04.108Z,62
2016-10-07T19:09:04.151Z,62.38
2016-10-07T19:10:04.744Z,62.19
2016-10-07T19:11:04.273Z,61.04
2016-10-07T19:12:04.341Z,62.48
2016-10-07T19:13:04.944Z,62.19
2016-10-07T19:14:04.429Z,62.35
2016-10-07T19:15:04.505Z,62.26
2016-10-07T19:16:05.058Z,62.26
2016-10-07T19:17:04.638Z,62.16
2016-10-07T19:18:04.621Z,62.54
2016-10-07T19:19:05.261Z,62.06
2016-10-07T19:20:04.740Z,61.97
2016-10-07T19:21:05.377Z,61.68
2016-10-07T19:22:04.840Z,62.26
2016-10-07T19:23:04.898Z,61.68
2016-10-07T19:24:04.948Z,61.87
2016-10-07T19:25:05.038Z,62.06
2016-10-07T19:26:05.074Z,61.97
2016-10-07T19:27:05.096Z,62.54
2016-10-07T19:28:05.705Z,62.35
2016-10-07T19:29:05.238Z,62.35
2016-10-07T19:30:05.794Z,62.16
2016-10-07T19:31:05.320Z,61.68
2016-10-07T19:32:05.384Z,62.45
2016-10-07T19:33:05.412Z,62.45
2016-10-07T19:34:05.710Z,62.26
2016-10-07T19:35:05.551Z,62.64
2016-10-07T19:36:05.580Z,62.45
2016-10-07T19:37:05.663Z,61.87
2016-10-07T19:38:05.709Z,62.35
2016-10-07T19:39:05.791Z,61.19
2016-10-07T19:40:06.024Z,61.87
2016-10-07T19:41:05.879Z,62.16
2016-10-07T19:42:05.911Z,61.97
2016-10-07T19:43:06.516Z,61.87
2016-10-07T19:44:06.002Z,61.97
2016-10-07T19:45:06.091Z,62.35
2016-10-07T19:46:06.111Z,61.49
2016-10-07T19:47:06.757Z,61.77
2016-10-07T19:48:06.221Z,61.87
2016-10-07T19:49:06.803Z,62.06
2016-10-07T19:50:06.352Z,61.87
2016-10-07T19:51:06.425Z,61.8
2016-10-07T19:52:06.456Z,62.35
2016-10-07T19:53:06.483Z,61.77
2016-10-07T19:54:06.544Z,62.45
2016-10-07T19:55:06.627Z,62.54
2016-10-07T19:56:07.179Z,62.16
2016-10-07T19:57:06.687Z,62.26
2016-10-07T19:58:06.761Z,62.26
2016-10-07T19:59:06.793Z,62.26
2016-10-07T20:00:06.855Z,61.87
2016-10-07T20:01:07.500Z,61.87
2016-10-07T20:02:06.997Z,61.68
2016-10-07T20:03:07.014Z,61.1
2016-10-07T20:04:07.101Z,60.62
2016-10-07T20:05:07.111Z,61.1
2016-10-07T20:06:07.728Z,61.19
2016-10-07T20:07:07.231Z,61.19
2016-10-07T20:08:07.276Z,62.06
2016-10-07T20:09:07.355Z,62.16
2016-10-07T20:10:07.570Z,62.71
2016-10-07T20:11:07.442Z,62.51
2016-10-07T20:12:07.501Z,63.18
2016-10-07T20:13:08.070Z,63.18
2016-10-07T20:14:07.609Z,62.99
2016-10-07T20:15:07.698Z,63.18
2016-10-07T20:16:07.707Z,62.83
2016-10-07T20:17:07.778Z,64.05
2016-10-07T20:18:08.343Z,64.34
2016-10-07T20:19:07.868Z,64.73
2016-10-07T20:20:07.932Z,65.4
2016-10-07T20:21:07.989Z,66.04
2016-10-07T20:22:08.041Z,65.88
2016-10-07T20:23:08.115Z,66.81
2016-10-07T20:24:08.115Z,67.19
2016-10-07T20:25:08.718Z,67.77
2016-10-07T20:26:08.241Z,68.21
2016-10-07T20:27:08.843Z,68.79
2016-10-07T20:28:08.842Z,68.79
2016-10-07T20:29:08.413Z,68.89
2016-10-07T20:30:08.431Z,68.21
2016-10-07T20:31:09.047Z,67.48
2016-10-07T20:32:08.586Z,67.68
2016-10-07T20:33:08.625Z,67.77
2016-10-07T20:34:09.196Z,67.29
2016-10-07T20:35:08.734Z,66.91
2016-10-07T20:36:08.775Z,67.19
2016-10-07T20:37:09.327Z,66.91
2016-10-07T20:38:09.430Z,66.91
2016-10-07T20:39:09.441Z,67.45
2016-10-07T20:40:08.982Z,68.02
2016-10-07T20:41:09.021Z,68.31
2016-10-07T20:42:09.069Z,68.08
2016-10-07T20:43:09.329Z,68.21
2016-10-07T20:44:09.168Z,67.83
2016-10-07T20:45:09.731Z,67.64
2016-10-07T20:46:09.276Z,67.64
2016-10-07T20:47:09.354Z,67.25
2016-10-07T20:48:09.382Z,66.97
2016-10-07T20:49:09.447Z,66.93
2016-10-07T20:50:09.986Z,67.61
2016-10-07T20:51:09.548Z,67.51
2016-10-07T20:52:09.604Z,67.61
2016-10-07T20:53:09.650Z,67.51
2016-10-07T20:54:10.207Z,67.7
2016-10-07T20:55:09.769Z,67.74
2016-10-07T20:56:10.335Z,66.49
2016-10-07T20:57:09.893Z,66.77
2016-10-07T20:58:09.897Z,66.93
2016-10-07T20:59:10.466Z,67.45
2016-10-07T21:00:09.998Z,67.16
2016-10-07T21:01:10.628Z,67.41
2016-10-07T21:02:10.110Z,67.51
2016-10-07T21:03:10.169Z,67.8
2016-10-07T21:04:10.229Z,67.51
2016-10-07T21:05:10.280Z,67.99
2016-10-07T21:06:10.321Z,68.57
2016-10-07T21:07:10.451Z,68.63
2016-10-07T21:08:10.464Z,68.91
2016-10-07T21:09:10.512Z,69.2
2016-10-07T21:10:10.561Z,68.73
2016-10-07T21:11:11.110Z,68.63
2016-10-07T21:12:10.627Z,68.44
2016-10-07T21:13:10.719Z,68.24
2016-10-07T21:14:11.444Z,68.24
2016-10-07T21:15:10.791Z,68.34
2016-10-07T21:16:11.347Z,68.53
2016-10-07T21:17:10.871Z,68.73
2016-10-07T21:18:10.939Z,68.63
2016-10-07T21:19:11.025Z,68.73
2016-10-07T21:20:11.043Z,68.44
2016-10-07T21:21:11.129Z,68.44
2016-10-07T21:22:11.666Z,68.91
2016-10-07T21:23:11.987Z,69.11
2016-10-07T21:24:11.247Z,69.11
2016-10-07T21:25:11.314Z,69.11
2016-10-07T21:26:11.865Z,68.82
2016-10-07T21:27:11.429Z,68.53
2016-10-07T21:28:11.467Z,68.53
2016-10-07T21:29:11.528Z,68.63
2016-10-07T21:30:12.101Z,69.2
2016-10-07T21:31:11.607Z,68.82
2016-10-07T21:32:11.693Z,69.01
2016-10-07T21:33:11.718Z,69.68
2016-10-07T21:34:11.787Z,69.56
2016-10-07T21:35:11.819Z,69.87
2016-10-07T21:36:11.872Z,69.93
2016-10-07T21:37:11.908Z,70.03
2016-10-07T21:38:11.980Z,69.3
2016-10-07T21:39:11.992Z,69.68
2016-10-07T21:40:12.116Z,69.4
2016-10-07T21:41:12.148Z,69.59
2016-10-07T21:42:12.162Z,69.49
2016-10-07T21:43:12.241Z,69.68
2016-10-07T21:44:12.275Z,69.4
2016-10-07T21:45:12.351Z,69.4
2016-10-07T21:46:12.383Z,69.2
2016-10-07T21:47:12.435Z,69.78
2016-10-07T21:48:12.475Z,69.56
2016-10-07T21:49:12.528Z,69.68
2016-10-07T21:50:12.565Z,69.59
2016-10-07T21:51:13.146Z,69.97
2016-10-07T21:52:12.675Z,69.59
2016-10-07T21:53:12.754Z,69.59
2016-10-07T21:54:12.797Z,69.59
2016-10-07T21:55:12.873Z,70.45
2016-10-07T21:56:12.890Z,70.45
2016-10-07T21:57:12.954Z,70.32
2016-10-07T21:58:13.015Z,70.03
2016-10-07T21:59:13.028Z,69.65
2016-10-07T22:00:13.854Z,70.32
2016-10-07T22:01:13.711Z,70.45
2016-10-07T22:02:13.199Z,69.68
2016-10-07T22:03:13.268Z,70.07
2016-10-07T22:04:13.331Z,69.46
2016-10-07T22:05:13.364Z,69.74
2016-10-07T22:06:13.797Z,69.78
2016-10-07T22:07:13.667Z,68.73
2016-10-07T22:08:13.496Z,69.01
2016-10-07T22:09:14.111Z,68.53
2016-10-07T22:10:13.619Z,68.91
2016-10-07T22:11:13.665Z,69.11
2016-10-07T22:12:13.710Z,69.4
2016-10-07T22:13:13.753Z,69.59
2016-10-07T22:14:13.838Z,69.01
2016-10-07T22:15:13.858Z,69.11
2016-10-07T22:16:13.939Z,68.98
2016-10-07T22:17:13.977Z,68.91
2016-10-07T22:18:14.051Z,68.63
2016-10-07T22:19:14.084Z,68.82
2016-10-07T22:20:14.123Z,68.73
2016-10-07T22:21:14.172Z,68.44
2016-10-07T22:22:14.239Z,68.73
2016-10-07T22:23:14.278Z,68.63
2016-10-07T22:24:14.345Z,68.63
2016-10-07T22:25:14.417Z,68.53
2016-10-07T22:26:14.478Z,68.73
2016-10-07T22:27:14.469Z,68.34
2016-10-07T22:28:14.528Z,69.49
2016-10-07T22:29:14.609Z,69.59
2016-10-07T22:30:14.625Z,69.78
2016-10-07T22:31:14.709Z,69.4
2016-10-07T22:32:14.739Z,69.68
2016-10-07T22:33:14.791Z,69.65
2016-10-07T22:34:14.826Z,69.74
2016-10-07T22:35:14.883Z,69.36
2016-10-07T22:36:14.956Z,69.84
2016-10-07T22:37:14.991Z,69.56
2016-10-07T22:38:15.071Z,69.2
2016-10-07T22:39:15.116Z,69.01
2016-10-07T22:40:15.702Z,69.01
2016-10-07T22:41:15.199Z,69.49
2016-10-07T22:42:15.260Z,69.4
2016-10-07T22:43:15.818Z,69.4
2016-10-07T22:44:15.385Z,69.4
2016-10-07T22:45:15.418Z,69.78
2016-10-07T22:46:15.491Z,69.68
2016-10-07T22:47:15.506Z,69.97
2016-10-07T22:48:15.599Z,69.59
2016-10-07T22:49:15.630Z,70.07
2016-10-07T22:50:15.681Z,70.36
2016-10-07T22:51:15.751Z,70.8
2016-10-07T22:52:15.804Z,70.8
2016-10-07T22:53:15.848Z,70.17
2016-10-07T22:54:15.880Z,70.07
2016-10-07T22:55:15.934Z,70.07
2016-10-07T22:56:15.963Z,70.03
2016-10-07T22:57:16.048Z,70.84
2016-10-07T22:58:16.063Z,70.64
2016-10-07T22:59:16.119Z,70.64
2016-10-07T23:00:16.185Z,70.17
2016-10-07T23:01:16.250Z,69.97
2016-10-07T23:02:16.291Z,70.26
2016-10-07T23:03:16.322Z,70.45
2016-10-07T23:04:16.388Z,70.42
2016-10-07T23:05:16.434Z,70.99
2016-10-07T23:06:16.518Z,70.9
2016-10-07T23:07:16.526Z,71.22
2016-10-07T23:08:16.585Z,71.86
2016-10-07T23:09:16.664Z,72.33
2016-10-07T23:10:16.708Z,72.14
2016-10-07T23:11:16.736Z,72.14
2016-10-07T23:12:16.802Z,71.66
2016-10-07T23:13:16.858Z,72.53
2016-10-07T23:14:16.903Z,71.86
2016-10-07T23:15:16.963Z,72.72
2016-10-07T23:16:17.043Z,72.59
2016-10-07T23:17:17.058Z,72.43
2016-10-07T23:18:17.120Z,72.63
2016-10-07T23:19:17.154Z,73.2
2016-10-07T23:20:17.711Z,73.2
2016-10-07T23:21:17.268Z,73
2016-10-07T23:22:17.313Z,72.14
2016-10-07T23:23:17.398Z,72.05
2016-10-07T23:24:17.440Z,72.24
2016-10-07T23:25:17.508Z,71.86
2016-10-07T23:26:17.513Z,71.66
2016-10-07T23:27:17.599Z,72.81
2016-10-07T23:28:17.651Z,73.2
2016-10-07T23:29:17.670Z,72.72
2016-10-07T23:30:17.749Z,72.33
2016-10-07T23:31:17.769Z,71.86
2016-10-07T23:32:17.836Z,72.24
2016-10-07T23:33:17.879Z,72.24
2016-10-07T23:34:17.921Z,71.51
2016-10-07T23:35:17.970Z,71.57
2016-10-07T23:36:18.052Z,71.7
2016-10-07T23:37:18.106Z,71.76
2016-10-07T23:38:18.158Z,71.22
2016-10-07T23:39:18.210Z,71.41
2016-10-07T23:40:18.261Z,71.8
2016-10-07T23:41:18.300Z,71.41
2016-10-07T23:42:18.364Z,71.8
2016-10-07T23:43:18.403Z,71.98
2016-10-07T23:44:18.434Z,71.89
2016-10-07T23:45:18.503Z,71.89
2016-10-07T23:46:18.583Z,72.66
2016-10-07T23:47:18.618Z,72.75
2016-10-07T23:48:18.661Z,71.98
2016-10-07T23:49:18.703Z,72.37
2016-10-07T23:50:18.783Z,71.89
2016-10-07T23:51:19.397Z,72.28
2016-10-07T23:52:18.867Z,72.28
2016-10-07T23:53:18.927Z,72.56
2016-10-07T23:54:18.988Z,72.18
2016-10-07T23:55:19.014Z,72.18
2016-10-07T23:56:19.063Z,72.47
2016-10-07T23:57:19.149Z,71.89
2016-10-07T23:58:19.196Z,72.08
2016-10-07T23:59:19.238Z,72.95
